Misen Maru — JD3893 — position and weather

sailwx.info

Track history (hours):
 
Tides and Currents Weather Stations Pressure Air Temp Water Temp Dewpoint Dewpoint Depression Visibility Wind Speed Wind Dir Waves Ship Positions

Misen Maru

Last reported at 2018-Feb-16 11:59 UTC. Time now 2018-Feb-19 21:52 UTC.
Position N 34°01' E 132°46'.

Length 82 m; draft 5.2 m.

Type: Cargo ship. MMSI: 431006889.

Date/timePositionNaut miles runAvg speedWind from/ knotsBaromVisibWave heightAir tempDewpointWater temp
2018-Feb-16 11:59N 34°01' E 132°46'713.7
2018-Feb-16 11:30N 33°56' E 132°41'1013.3
2018-Feb-16 10:46N 33°49' E 132°32'512.6
2018-Feb-16 10:22N 33°46' E 132°28'512.9
2018-Feb-16 10:00N 33°43' E 132°23'912.7
2018-Feb-16 09:17N 33°36' E 132°15'612.4
2018-Feb-16 08:49N 33°32' E 132°10'412.6
2018-Feb-16 08:30N 33°30' E 132°07'612.6
2018-Feb-16 08:00N 33°25' E 132°02'612.5
2018-Feb-16 07:29N 33°19' E 131°58'8 1.1
2018-Feb-15 23:41N 33°11' E 131°57'212.8
2018-Feb-15 23:30N 33°13' E 131°58'810.6
2018-Feb-15 22:47N 33°21' E 131°59'3 9.8
2018-Feb-15 22:30N 33°23' E 131°60'1410.9
2018-Feb-15 21:13N 33°34' E 132°11'311.9
2018-Feb-15 20:57N 33°36' E 132°13'512.0
2018-Feb-15 20:30N 33°40' E 132°18'712.4
2018-Feb-15 19:58N 33°44' E 132°24'613.1
2018-Feb-15 19:30N 33°48' E 132°30'713.2
2018-Feb-15 18:59N 33°53' E 132°36'714.4
2018-Feb-15 18:30N 33°57' E 132°42'  
2018-Feb-10 16:57N 34°02' E 132°45'511.6
2018-Feb-10 16:30N 33°57' E 132°43'611.3
2018-Feb-10 16:00N 33°54' E 132°37'611.6
2018-Feb-10 15:28N 33°49' E 132°32'511.6
2018-Feb-10 15:00N 33°46' E 132°27'611.5
2018-Feb-10 14:30N 33°41' E 132°22'911.3
2018-Feb-10 13:39N 33°35' E 132°14'1011.2
2018-Feb-10 12:44N 33°27' E 132°06'210.8
2018-Feb-10 12:30N 33°26' E 132°04'610.4
2018-Feb-10 11:58N 33°21' E 131°59'4 9.7
2018-Feb-10 11:30N 33°17' E 131°59'6 1.0
2018-Feb-10 05:31N 33°11' E 131°58'512.6
2018-Feb-10 05:05N 33°16' E 131°59'112.5
2018-Feb-10 05:00N 33°17' E 131°59'612.0
2018-Feb-10 04:28N 33°24' E 131°59'1712.6
2018-Feb-10 03:06N 33°36' E 132°14'112.7
2018-Feb-10 02:59N 33°37' E 132°15'713.1
2018-Feb-10 02:29N 33°41' E 132°21'613.0
2018-Feb-10 02:00N 33°45' E 132°26'613.1
2018-Feb-10 01:30N 33°50' E 132°32'813.2
2018-Feb-10 00:55N 33°55' E 132°39'512.9
2018-Feb-10 00:30N 33°59' E 132°43'  
2018-Feb-07 06:12N 34°21' E 134°25'511.2
2018-Feb-07 05:47N 34°19' E 134°30'311.2
2018-Feb-07 05:30N 34°17' E 134°34'710.6
2018-Feb-07 04:53N 34°13' E 134°40'511.4
2018-Feb-07 04:29N 34°08' E 134°40'611.9
2018-Feb-07 03:57N 34°02' E 134°39'3 5.7
2018-Feb-07 03:25N 33°60' E 134°37'0 0.0
2018-Feb-07 00:21N 33°60' E 134°37'0 0.0
2018-Feb-06 23:59N 33°60' E 134°37'0 0.0
2018-Feb-06 23:30N 33°60' E 134°37'0 0.3
2018-Feb-06 22:48N 33°60' E 134°37'2 7.1
2018-Feb-06 22:30N 34°02' E 134°38'0 0.6
2018-Feb-06 22:00N 34°02' E 134°38'1 2.5
2018-Feb-06 21:30N 34°03' E 134°38'612.7
2018-Feb-06 21:00N 34°09' E 134°40'713.6
2018-Feb-06 20:30N 34°16' E 134°38'612.8
2018-Feb-06 20:00N 34°18' E 134°31'612.8
2018-Feb-06 19:30N 34°20' E 134°24'1113.2
2018-Feb-06 18:41N 34°25' E 134°11'  
Track history (hours):
 
Tides and Currents Weather Stations Pressure Air Temp Water Temp Dewpoint Dewpoint Depression Visibility Wind Speed Wind Dir Waves Ship Positions

Misen Maru

Last reported at 2018-Feb-16 11:59 UTC. Time now 2018-Feb-19 21:52 UTC.
Position N 34°01' E 132°46'.

Length 82 m; draft 5.2 m.

Type: Cargo ship. MMSI: 431006889.

Date/timePositionNaut miles runAvg speedWind from/ knotsBaromVisibWave heightAir tempDewpointWater temp
2018-Feb-16 11:59N 34°01' E 132°46'713.7
2018-Feb-16 11:30N 33°56' E 132°41'1013.3
2018-Feb-16 10:46N 33°49' E 132°32'512.6
2018-Feb-16 10:22N 33°46' E 132°28'512.9
2018-Feb-16 10:00N 33°43' E 132°23'912.7
2018-Feb-16 09:17N 33°36' E 132°15'612.4
2018-Feb-16 08:49N 33°32' E 132°10'412.6
2018-Feb-16 08:30N 33°30' E 132°07'612.6
2018-Feb-16 08:00N 33°25' E 132°02'612.5
2018-Feb-16 07:29N 33°19' E 131°58'8 1.1
2018-Feb-15 23:41N 33°11' E 131°57'212.8
2018-Feb-15 23:30N 33°13' E 131°58'810.6
2018-Feb-15 22:47N 33°21' E 131°59'3 9.8
2018-Feb-15 22:30N 33°23' E 131°60'1410.9
2018-Feb-15 21:13N 33°34' E 132°11'311.9
2018-Feb-15 20:57N 33°36' E 132°13'512.0
2018-Feb-15 20:30N 33°40' E 132°18'712.4
2018-Feb-15 19:58N 33°44' E 132°24'613.1
2018-Feb-15 19:30N 33°48' E 132°30'713.2
2018-Feb-15 18:59N 33°53' E 132°36'714.4
2018-Feb-15 18:30N 33°57' E 132°42'  
2018-Feb-10 16:57N 34°02' E 132°45'511.6
2018-Feb-10 16:30N 33°57' E 132°43'611.3
2018-Feb-10 16:00N 33°54' E 132°37'611.6
2018-Feb-10 15:28N 33°49' E 132°32'511.6
2018-Feb-10 15:00N 33°46' E 132°27'611.5
2018-Feb-10 14:30N 33°41' E 132°22'911.3
2018-Feb-10 13:39N 33°35' E 132°14'1011.2
2018-Feb-10 12:44N 33°27' E 132°06'210.8
2018-Feb-10 12:30N 33°26' E 132°04'610.4
2018-Feb-10 11:58N 33°21' E 131°59'4 9.7
2018-Feb-10 11:30N 33°17' E 131°59'6 1.0
2018-Feb-10 05:31N 33°11' E 131°58'512.6
2018-Feb-10 05:05N 33°16' E 131°59'112.5
2018-Feb-10 05:00N 33°17' E 131°59'612.0
2018-Feb-10 04:28N 33°24' E 131°59'1712.6
2018-Feb-10 03:06N 33°36' E 132°14'112.7
2018-Feb-10 02:59N 33°37' E 132°15'713.1
2018-Feb-10 02:29N 33°41' E 132°21'613.0
2018-Feb-10 02:00N 33°45' E 132°26'613.1
2018-Feb-10 01:30N 33°50' E 132°32'813.2
2018-Feb-10 00:55N 33°55' E 132°39'512.9
2018-Feb-10 00:30N 33°59' E 132°43'  
2018-Feb-07 06:12N 34°21' E 134°25'511.2
2018-Feb-07 05:47N 34°19' E 134°30'311.2
2018-Feb-07 05:30N 34°17' E 134°34'710.6
2018-Feb-07 04:53N 34°13' E 134°40'511.4
2018-Feb-07 04:29N 34°08' E 134°40'611.9
2018-Feb-07 03:57N 34°02' E 134°39'3 5.7
2018-Feb-07 03:25N 33°60' E 134°37'0 0.0
2018-Feb-07 00:21N 33°60' E 134°37'0 0.0
2018-Feb-06 23:59N 33°60' E 134°37'0 0.0
2018-Feb-06 23:30N 33°60' E 134°37'0 0.3
2018-Feb-06 22:48N 33°60' E 134°37'2 7.1
2018-Feb-06 22:30N 34°02' E 134°38'0 0.6
2018-Feb-06 22:00N 34°02' E 134°38'1 2.5
2018-Feb-06 21:30N 34°03' E 134°38'612.7
2018-Feb-06 21:00N 34°09' E 134°40'713.6
2018-Feb-06 20:30N 34°16' E 134°38'612.8
2018-Feb-06 20:00N 34°18' E 134°31'612.8
2018-Feb-06 19:30N 34°20' E 134°24'1113.2
2018-Feb-06 18:41N 34°25' E 134°11'  

Dump ship's entire track history